Time;durP1;ratioP1;P1;durP2;ratioP2;P2;SDS_P1;SDS_P2;PMS_P1;PMS_P2;Temp;Humidity;BMP_temperature;BMP_pressure;BME280_temperature;BME280_humidity;BME280_pressure;Samples;Min_cycle;Max_cycle;Signal;HPM_P1;HPM_P2
2021/04/20 00:00:59;;;;;;;1.57;1.30;;;7.40;98.20;;;;;;5072881;28;20525;-81
2021/04/20 00:03:25;;;;;;;1.60;1.30;;;7.40;98.20;;;;;;5078832;28;20458;-82
2021/04/20 00:05:51;;;;;;;1.53;1.30;;;7.40;98.20;;;;;;5078922;28;20532;-83
2021/04/20 00:08:19;;;;;;;2.33;2.13;;;7.40;98.20;;;;;;5072148;28;20552;-84
2021/04/20 00:10:45;;;;;;;1.90;1.80;;;7.30;98.20;;;;;;5077233;28;20511;-81
2021/04/20 00:13:12;;;;;;;1.50;1.20;;;7.30;98.20;;;;;;5078357;28;20462;-81
2021/04/20 00:15:38;;;;;;;1.57;1.30;;;7.30;98.20;;;;;;5078664;28;20497;-82
2021/04/20 00:18:07;;;;;;;1.50;1.20;;;7.30;98.20;;;;;;5070980;28;21066;-82
2021/04/20 00:20:34;;;;;;;1.60;1.30;;;7.30;98.20;;;;;;5077789;28;20492;-82
2021/04/20 00:23:01;;;;;;;1.57;1.30;;;7.30;98.20;;;;;;5079127;28;20497;-83
2021/04/20 00:25:28;;;;;;;1.50;1.20;;;7.30;98.20;;;;;;5076479;28;20465;-82
2021/04/20 00:27:54;;;;;;;1.57;1.20;;;7.30;98.20;;;;;;5074871;28;20487;-82
2021/04/20 00:30:21;;;;;;;1.60;1.40;;;7.30;98.20;;;;;;5078011;28;20461;-83
2021/04/20 00:32:47;;;;;;;1.53;1.30;;;7.30;98.20;;;;;;5076463;28;20481;-82
2021/04/20 00:35:14;;;;;;;1.50;1.30;;;7.30;98.20;;;;;;5070513;28;20459;-84
2021/04/20 00:37:41;;;;;;;1.60;1.30;;;7.30;98.20;;;;;;5076751;28;20537;-82
2021/04/20 00:40:09;;;;;;;1.60;1.40;;;7.20;98.20;;;;;;5075578;28;20495;-82
2021/04/20 00:42:47;;;;;;;1.60;1.40;;;7.20;98.20;;;;;;5072828;28;20489;-81
2021/04/20 00:45:15;;;;;;;1.57;1.30;;;7.20;98.20;;;;;;5072004;28;20457;-81
2021/04/20 00:47:42;;;;;;;1.53;1.20;;;7.20;98.20;;;;;;5078341;28;20463;-83
2021/04/20 00:50:10;;;;;;;1.50;1.30;;;7.10;98.20;;;;;;5077092;28;20500;-82
2021/04/20 00:52:36;;;;;;;1.50;1.30;;;7.10;98.20;;;;;;5062669;28;20489;-80
2021/04/20 00:55:03;;;;;;;1.50;1.30;;;7.10;98.20;;;;;;5070061;28;20449;-81
2021/04/20 00:57:29;;;;;;;1.60;1.30;;;7.10;98.20;;;;;;5072798;28;20467;-81
2021/04/20 00:59:56;;;;;;;1.53;1.30;;;7.10;98.20;;;;;;5072320;28;20454;-80
2021/04/20 01:02:23;;;;;;;1.50;1.20;;;7.10;98.20;;;;;;5056062;28;20482;-83
2021/04/20 01:04:49;;;;;;;1.60;1.30;;;7.00;98.20;;;;;;5064337;28;20449;-82
2021/04/20 01:07:16;;;;;;;1.60;1.30;;;7.00;98.20;;;;;;5070949;28;20458;-82
2021/04/20 01:09:43;;;;;;;1.60;1.30;;;7.00;98.20;;;;;;5069300;28;20457;-82
2021/04/20 01:12:10;;;;;;;1.50;1.20;;;7.00;98.20;;;;;;5070740;28;20485;-82
2021/04/20 01:14:37;;;;;;;1.53;1.30;;;6.90;98.20;;;;;;5073059;28;20474;-82
2021/04/20 01:17:04;;;;;;;1.50;1.30;;;6.90;98.20;;;;;;5074698;28;20473;-81
2021/04/20 01:19:32;;;;;;;1.60;1.30;;;6.90;98.20;;;;;;5074099;28;21221;-83
2021/04/20 01:22:00;;;;;;;1.53;1.30;;;6.90;98.20;;;;;;5074351;28;20505;-82
2021/04/20 01:24:28;;;;;;;1.60;1.40;;;6.80;98.20;;;;;;5075405;28;20461;-84
2021/04/20 01:26:56;;;;;;;1.60;1.40;;;6.80;98.20;;;;;;5079419;28;20932;-81
2021/04/20 01:29:22;;;;;;;1.60;1.43;;;6.80;98.20;;;;;;5078133;28;20519;-82
2021/04/20 01:31:49;;;;;;;1.53;1.30;;;6.80;98.20;;;;;;5078581;28;20485;-83
2021/04/20 01:34:17;;;;;;;1.53;1.30;;;6.70;98.20;;;;;;5078507;28;20553;-82
2021/04/20 01:36:43;;;;;;;1.57;1.30;;;6.70;98.20;;;;;;5079306;28;20567;-83
2021/04/20 01:39:11;;;;;;;1.60;1.30;;;6.70;98.20;;;;;;5070326;28;20508;-83
2021/04/20 01:41:39;;;;;;;1.60;1.30;;;6.70;98.20;;;;;;5070836;28;20485;-82
2021/04/20 01:44:07;;;;;;;1.53;1.30;;;6.70;98.20;;;;;;5072855;28;20470;-83
2021/04/20 01:46:34;;;;;;;1.60;1.30;;;6.60;98.20;;;;;;5070426;28;20493;-83
2021/04/20 01:49:01;;;;;;;1.53;1.30;;;6.60;98.20;;;;;;5078996;28;20485;-83
2021/04/20 01:51:29;;;;;;;1.60;1.40;;;6.50;98.20;;;;;;5078001;28;20477;-83
2021/04/20 01:53:55;;;;;;;1.57;1.30;;;6.50;98.20;;;;;;5068474;28;20473;-84
2021/04/20 01:56:22;;;;;;;1.57;1.30;;;6.50;98.20;;;;;;5078132;28;20513;-84
2021/04/20 01:58:50;;;;;;;1.60;1.40;;;6.50;98.20;;;;;;5077794;28;20497;-83
2021/04/20 02:01:18;;;;;;;1.50;1.30;;;6.50;98.20;;;;;;5066976;28;21274;-83
2021/04/20 02:03:46;;;;;;;1.60;1.40;;;6.40;98.20;;;;;;5075542;28;20545;-83
2021/04/20 02:06:14;;;;;;;1.53;1.30;;;6.40;98.20;;;;;;5078293;28;20919;-82
2021/04/20 02:08:41;;;;;;;1.60;1.40;;;6.40;98.20;;;;;;5073461;28;21054;-83
2021/04/20 02:11:11;;;;;;;1.53;1.20;;;6.30;98.20;;;;;;5074633;28;20477;-84
2021/04/20 02:13:38;;;;;;;1.57;1.40;;;6.30;98.20;;;;;;5078472;28;20477;-83
2021/04/20 02:16:07;;;;;;;1.57;1.30;;;6.30;98.20;;;;;;5078747;28;20550;-83
2021/04/20 02:18:36;;;;;;;1.60;1.30;;;6.30;98.20;;;;;;5065018;28;20538;-81
2021/04/20 02:21:04;;;;;;;1.53;1.30;;;6.30;98.20;;;;;;5073747;28;20473;-82
2021/04/20 02:23:30;;;;;;;1.60;1.33;;;6.30;98.20;;;;;;5077373;28;20463;-82
2021/04/20 02:26:04;;;;;;;1.53;1.30;;;6.20;98.20;;;;;;5081572;28;20492;-83
2021/04/20 02:28:32;;;;;;;1.50;1.27;;;6.20;98.20;;;;;;5075015;28;20462;-83
2021/04/20 02:31:00;;;;;;;1.60;1.40;;;6.20;98.20;;;;;;5076522;28;20489;-82
2021/04/20 02:33:28;;;;;;;1.60;1.30;;;6.20;98.20;;;;;;5075377;28;20533;-83
2021/04/20 02:35:56;;;;;;;1.60;1.30;;;6.10;98.20;;;;;;5079492;28;20465;-82
2021/04/20 02:38:23;;;;;;;1.57;1.30;;;6.10;98.20;;;;;;5081439;28;20516;-82
2021/04/20 02:40:54;;;;;;;1.60;1.30;;;6.10;98.20;;;;;;5075432;28;20567;-84
2021/04/20 02:43:21;;;;;;;1.57;1.40;;;6.10;98.20;;;;;;5080665;28;20453;-84
2021/04/20 02:45:49;;;;;;;1.57;1.30;;;6.10;98.20;;;;;;5083087;28;20628;-84
2021/04/20 02:48:16;;;;;;;1.60;1.30;;;6.10;98.20;;;;;;5083375;28;20545;-84
2021/04/20 02:50:45;;;;;;;1.60;1.40;;;6.10;98.20;;;;;;5076979;28;20457;-84
2021/04/20 02:53:15;;;;;;;1.60;1.30;;;6.10;98.20;;;;;;5075832;28;20924;-83
2021/04/20 02:55:42;;;;;;;1.60;1.40;;;6.10;98.20;;;;;;5083270;28;20449;-82
2021/04/20 02:58:15;;;;;;;1.60;1.40;;;6.10;98.20;;;;;;5081389;28;20486;-84
2021/04/20 03:00:44;;;;;;;1.50;1.30;;;6.10;98.20;;;;;;5075238;28;20461;-83
2021/04/20 03:03:12;;;;;;;1.60;1.30;;;6.10;98.20;;;;;;5071935;28;20473;-84
2021/04/20 03:05:40;;;;;;;1.57;1.40;;;6.10;98.20;;;;;;5080447;28;20460;-84
2021/04/20 03:08:11;;;;;;;1.50;1.30;;;6.10;98.20;;;;;;5076100;28;20464;-84
2021/04/20 03:10:42;;;;;;;1.53;1.30;;;6.10;98.20;;;;;;5082035;28;20457;-85
2021/04/20 03:13:08;;;;;;;1.60;1.30;;;6.10;98.20;;;;;;5082612;28;20449;-83
2021/04/20 03:15:35;;;;;;;1.60;1.40;;;6.10;98.20;;;;;;5077633;28;20472;-85
2021/04/20 03:18:02;;;;;;;4.63;4.33;;;6.00;98.20;;;;;;5081075;28;20488;-82
2021/04/20 03:20:28;;;;;;;1.60;1.47;;;6.00;98.20;;;;;;5082387;28;20579;-84
2021/04/20 03:22:58;;;;;;;1.57;1.40;;;6.00;98.20;;;;;;5076296;28;20470;-84
2021/04/20 03:25:26;;;;;;;1.57;1.37;;;5.90;98.20;;;;;;5080455;28;20462;-81
2021/04/20 03:27:54;;;;;;;1.53;1.30;;;5.90;98.20;;;;;;5081388;28;20489;-81
2021/04/20 03:30:24;;;;;;;1.50;1.30;;;5.90;98.20;;;;;;5080295;28;20472;-83
2021/04/20 03:32:58;;;;;;;1.50;1.30;;;5.90;98.20;;;;;;5075899;28;20473;-83
2021/04/20 03:35:27;;;;;;;1.57;1.30;;;5.90;98.20;;;;;;5080057;28;21119;-84
2021/04/20 03:38:01;;;;;;;1.50;1.30;;;5.80;98.20;;;;;;5082526;28;20543;-83
2021/04/20 03:40:30;;;;;;;1.60;1.40;;;5.80;98.20;;;;;;5073083;28;20460;-83
2021/04/20 03:43:00;;;;;;;1.60;1.40;;;5.80;98.20;;;;;;5081279;28;20454;-82
2021/04/20 03:45:34;;;;;;;1.60;1.50;;;5.80;98.20;;;;;;5079180;28;20493;-82
2021/04/20 03:48:10;;;;;;;1.60;1.47;;;5.80;98.20;;;;;;5072953;28;20545;-82
2021/04/20 03:50:40;;;;;;;1.50;1.30;;;5.70;98.20;;;;;;5078412;28;20493;-83
2021/04/20 03:53:16;;;;;;;1.57;1.30;;;5.70;98.20;;;;;;5080556;28;20476;-82
2021/04/20 03:55:48;;;;;;;1.57;1.30;;;5.70;98.20;;;;;;5073565;28;20551;-80
2021/04/20 03:58:15;;;;;;;1.57;1.30;;;5.60;98.20;;;;;;5078180;28;21012;-81
2021/04/20 04:00:42;;;;;;;1.53;1.30;;;5.60;98.20;;;;;;5072751;28;20478;-82
2021/04/20 04:03:12;;;;;;;1.60;1.40;;;5.60;98.20;;;;;;5074042;28;20874;-84
2021/04/20 04:05:40;;;;;;;1.53;1.30;;;5.60;98.20;;;;;;5070553;28;20511;-82
2021/04/20 04:08:08;;;;;;;1.53;1.30;;;5.60;98.20;;;;;;5077055;28;21179;-81
2021/04/20 04:10:37;;;;;;;1.60;1.30;;;5.50;98.20;;;;;;5073617;28;20528;-82
2021/04/20 04:13:06;;;;;;;1.50;1.30;;;5.50;98.20;;;;;;5072586;28;20469;-81
2021/04/20 04:15:35;;;;;;;1.60;1.40;;;5.50;98.20;;;;;;5078053;28;20673;-82
2021/04/20 04:18:06;;;;;;;1.60;1.40;;;5.50;98.20;;;;;;5079630;28;20564;-82
2021/04/20 04:20:33;;;;;;;1.57;1.30;;;5.50;98.20;;;;;;5077400;28;20526;-81
2021/04/20 04:23:03;;;;;;;1.60;1.40;;;5.50;98.20;;;;;;5068705;28;20526;-82
2021/04/20 04:25:33;;;;;;;1.60;1.43;;;5.40;98.20;;;;;;5077579;28;20461;-81
2021/04/20 04:28:01;;;;;;;2.07;1.90;;;5.40;98.20;;;;;;5076601;28;20468;-83
2021/04/20 04:30:29;;;;;;;1.60;1.40;;;5.40;98.20;;;;;;5080545;28;20466;-83
2021/04/20 04:32:56;;;;;;;1.57;1.30;;;5.40;98.20;;;;;;5071034;28;20504;-85
2021/04/20 04:35:24;;;;;;;1.57;1.40;;;5.40;98.20;;;;;;5077888;28;20454;-82
2021/04/20 04:37:51;;;;;;;1.60;1.40;;;5.30;98.20;;;;;;5078814;28;20457;-82
2021/04/20 04:40:20;;;;;;;1.60;1.40;;;5.40;98.20;;;;;;5072813;28;20492;-82
2021/04/20 04:42:47;;;;;;;1.60;1.40;;;5.30;98.20;;;;;;5075174;28;20488;-83
2021/04/20 04:45:15;;;;;;;1.60;1.30;;;5.30;98.20;;;;;;5077976;28;20457;-82
2021/04/20 04:47:42;;;;;;;1.50;1.30;;;5.30;98.20;;;;;;5071413;28;20523;-81
2021/04/20 04:50:11;;;;;;;1.50;1.30;;;5.30;98.20;;;;;;5076598;28;20588;-82
2021/04/20 04:52:39;;;;;;;1.50;1.40;;;5.40;98.20;;;;;;5079015;28;20489;-82
2021/04/20 04:55:07;;;;;;;1.53;1.30;;;5.40;98.20;;;;;;5075962;28;20461;-83
2021/04/20 04:57:35;;;;;;;1.60;1.30;;;5.40;98.20;;;;;;5070335;28;20458;-83
2021/04/20 05:00:04;;;;;;;1.60;1.47;;;5.40;98.20;;;;;;5079109;28;20485;-83
2021/04/20 05:02:31;;;;;;;1.57;1.40;;;5.40;98.20;;;;;;5077768;28;20486;-84
2021/04/20 05:05:05;;;;;;;1.50;1.20;;;5.40;98.20;;;;;;5074744;28;20492;-83
2021/04/20 05:07:32;;;;;;;1.60;1.30;;;5.40;98.20;;;;;;5076738;28;20468;-81
2021/04/20 05:10:01;;;;;;;1.60;1.30;;;5.40;98.20;;;;;;5069108;28;20461;-81
2021/04/20 05:12:30;;;;;;;1.60;1.40;;;5.50;98.20;;;;;;5069742;28;20489;-81
2021/04/20 05:14:56;;;;;;;1.60;1.40;;;5.50;98.20;;;;;;5071110;28;20465;-79
2021/04/20 05:17:23;;;;;;;1.50;1.30;;;5.50;98.20;;;;;;5069957;28;20568;-80
2021/04/20 05:19:52;;;;;;;1.57;1.30;;;5.50;98.20;;;;;;5071843;28;21060;-83
2021/04/20 05:22:19;;;;;;;1.53;1.30;;;5.60;98.20;;;;;;5068509;28;20489;-82
2021/04/20 05:24:49;;;;;;;1.60;1.30;;;5.60;98.20;;;;;;5072594;28;20461;-82
2021/04/20 05:27:15;;;;;;;1.60;1.43;;;5.70;98.20;;;;;;5073886;28;20468;-82
2021/04/20 05:29:41;;;;;;;1.53;1.30;;;5.80;98.20;;;;;;5072821;28;20493;-82
2021/04/20 05:32:09;;;;;;;1.60;1.40;;;5.90;98.20;;;;;;5065610;28;20706;-82
2021/04/20 05:34:36;;;;;;;1.60;1.50;;;6.00;98.20;;;;;;5073601;28;20489;-81
2021/04/20 05:37:03;;;;;;;1.60;1.40;;;6.20;98.20;;;;;;5074842;28;20470;-83
2021/04/20 05:39:30;;;;;;;1.60;1.40;;;6.30;98.20;;;;;;5067063;28;20482;-83
2021/04/20 05:41:56;;;;;;;1.57;1.30;;;6.50;98.20;;;;;;5072794;28;20485;-83
2021/04/20 05:44:23;;;;;;;1.50;1.30;;;6.70;98.20;;;;;;5074331;28;20481;-84
2021/04/20 05:46:49;;;;;;;1.57;1.30;;;6.90;98.20;;;;;;5064941;28;20999;-83
2021/04/20 05:49:16;;;;;;;1.57;1.30;;;7.10;98.20;;;;;;5071868;28;20477;-82
2021/04/20 05:51:43;;;;;;;1.53;1.30;;;7.30;98.20;;;;;;5072199;28;20576;-82
2021/04/20 05:54:10;;;;;;;1.57;1.30;;;7.60;98.20;;;;;;5068136;28;20505;-83
2021/04/20 05:56:38;;;;;;;1.57;1.23;;;7.70;98.20;;;;;;5070627;28;20469;-83
2021/04/20 05:59:05;;;;;;;1.50;1.20;;;8.00;98.20;;;;;;5072855;28;21343;-83
2021/04/20 06:04:46;;;;;;;1.50;1.20;;;8.30;98.20;;;;;;5073029;28;20497;-83
2021/04/20 06:07:15;;;;;;;1.60;1.30;;;8.50;98.20;;;;;;5077587;28;20458;-83
2021/04/20 06:09:43;;;;;;;1.90;1.70;;;8.70;98.20;;;;;;5072393;28;20457;-82
2021/04/20 06:12:12;;;;;;;1.53;1.20;;;8.90;98.20;;;;;;5071753;28;21083;-82
2021/04/20 06:14:39;;;;;;;1.57;1.30;;;9.00;98.20;;;;;;5078071;28;20579;-82
2021/04/20 06:17:07;;;;;;;1.53;1.20;;;9.10;98.20;;;;;;5074965;28;20492;-84
2021/04/20 06:19:34;;;;;;;1.50;1.20;;;9.20;98.20;;;;;;5076257;28;20495;-82
2021/04/20 06:22:01;;;;;;;1.53;1.20;;;9.30;98.20;;;;;;5074681;28;20481;-82
2021/04/20 06:24:29;;;;;;;1.50;1.20;;;9.50;98.20;;;;;;5075007;28;20488;-82
2021/04/20 06:26:56;;;;;;;1.53;1.20;;;9.60;98.20;;;;;;5068315;28;20561;-82
2021/04/20 06:29:24;;;;;;;1.57;1.20;;;9.80;98.20;;;;;;5070363;28;20453;-81
2021/04/20 06:31:50;;;;;;;1.60;1.27;;;10.00;98.20;;;;;;5068468;28;20551;-82
2021/04/20 06:34:17;;;;;;;1.60;1.20;;;10.20;98.20;;;;;;5067899;28;20496;-83
2021/04/20 06:36:44;;;;;;;1.60;1.20;;;10.40;98.20;;;;;;5071600;28;20461;-82
2021/04/20 06:39:11;;;;;;;1.53;1.10;;;10.60;98.20;;;;;;5075707;28;20543;-80
2021/04/20 06:41:39;;;;;;;1.53;1.10;;;10.80;98.20;;;;;;5074535;28;20544;-80
2021/04/20 06:44:10;;;;;;;1.60;1.20;;;11.00;98.20;;;;;;5070493;28;20892;-81
2021/04/20 06:46:41;;;;;;;1.50;1.10;;;11.10;98.20;;;;;;5074036;28;20461;-82
2021/04/20 06:49:13;;;;;;;1.57;1.10;;;11.30;98.20;;;;;;5073037;28;20462;-81
2021/04/20 06:51:43;;;;;;;1.50;1.00;;;11.50;98.20;;;;;;5063118;28;20495;-81
2021/04/20 06:54:20;;;;;;;1.60;1.20;;;11.70;98.20;;;;;;5070068;28;20512;-81
2021/04/20 06:56:51;;;;;;;1.50;1.00;;;11.80;98.20;;;;;;5068359;28;20483;-82
2021/04/20 06:59:28;;;;;;;1.57;1.10;;;12.00;97.90;;;;;;5070484;28;21335;-82
2021/04/20 07:02:02;;;;;;;1.50;1.00;;;12.00;97.40;;;;;;5070091;28;20487;-82
2021/04/20 07:04:42;;;;;;;1.50;1.00;;;12.20;98.20;;;;;;5074367;28;20483;-83
2021/04/20 07:07:23;;;;;;;1.60;1.10;;;12.40;96.60;;;;;;5073596;28;20465;-84
2021/04/20 07:09:57;;;;;;;1.70;1.60;;;12.50;97.10;;;;;;5063787;28;20454;-84
2021/04/20 07:12:25;;;;;;;1.53;1.00;;;12.70;96.50;;;;;;5073771;28;20481;-85
2021/04/20 07:14:55;;;;;;;2.47;2.13;;;12.90;97.00;;;;;;5071860;28;20550;-84
2021/04/20 07:17:56;;;;;;;1.50;1.10;;;13.10;95.20;;;;;;5074457;28;20469;-85
2021/04/20 07:20:40;;;;;;;1.60;1.20;;;13.40;95.80;;;;;;5075502;28;20553;-84
2021/04/20 07:23:50;;;;;;;1.50;1.00;;;13.60;93.20;;;;;;5071223;28;20496;-84
2021/04/20 07:26:39;;;;;;;1.50;1.00;;;13.70;93.40;;;;;;5073781;28;20591;-83
2021/04/20 07:29:49;;;;;;;1.50;1.00;;;13.90;92.40;;;;;;5078948;28;20468;-82
2021/04/20 07:32:29;;;;;;;1.50;1.00;;;14.10;92.70;;;;;;5062708;28;20474;-81
2021/04/20 07:35:10;;;;;;;1.53;1.00;;;14.10;92.00;;;;;;5070150;28;20840;-82
2021/04/20 07:37:42;;;;;;;1.53;1.10;;;14.20;91.40;;;;;;5073717;28;20859;-84
2021/04/20 07:40:18;;;;;;;1.50;1.00;;;14.30;92.00;;;;;;5065210;28;20579;-84
2021/04/20 07:42:58;;;;;;;1.53;1.00;;;14.30;91.00;;;;;;5073504;28;20484;-81
2021/04/20 07:45:34;;;;;;;1.50;1.00;;;14.50;89.70;;;;;;5075958;28;20453;-83
2021/04/20 07:48:08;;;;;;;1.50;1.00;;;14.50;89.10;;;;;;5073821;28;20485;-83
2021/04/20 07:50:42;;;;;;;1.50;1.00;;;14.40;90.80;;;;;;5071690;28;20882;-81
2021/04/20 07:53:16;;;;;;;1.50;0.93;;;14.60;89.50;;;;;;5074760;28;20492;-80
2021/04/20 07:55:50;;;;;;;1.60;1.10;;;14.80;89.40;;;;;;5074246;28;20462;-81
2021/04/20 07:58:20;;;;;;;1.53;1.00;;;15.00;89.10;;;;;;5070348;28;20532;-83
2021/04/20 08:00:54;;;;;;;1.70;1.40;;;15.10;88.70;;;;;;5065854;28;20781;-82
2021/04/20 08:03:26;;;;;;;1.60;1.13;;;15.30;88.60;;;;;;5073375;28;20469;-82
2021/04/20 08:05:58;;;;;;;1.57;1.00;;;15.20;88.80;;;;;;5068126;28;20466;-83
2021/04/20 08:08:31;;;;;;;1.50;1.00;;;15.30;88.60;;;;;;5065407;28;20533;-82
2021/04/20 08:11:02;;;;;;;1.50;0.90;;;15.30;87.10;;;;;;5072076;28;20497;-80
2021/04/20 08:13:32;;;;;;;1.50;1.10;;;15.30;87.90;;;;;;5069584;28;20465;-83
2021/04/20 08:16:05;;;;;;;1.50;0.97;;;15.50;89.70;;;;;;5073919;28;20491;-82
2021/04/20 08:18:37;;;;;;;2.23;1.97;;;15.70;87.90;;;;;;5071853;28;20495;-83
2021/04/20 08:21:06;;;;;;;1.50;0.90;;;15.80;86.80;;;;;;5063867;28;20512;-83
2021/04/20 08:23:38;;;;;;;1.50;0.90;;;15.80;87.50;;;;;;5072411;28;20462;-82
2021/04/20 08:26:11;;;;;;;1.50;1.00;;;16.00;86.80;;;;;;5071246;28;20468;-82
2021/04/20 08:28:45;;;;;;;1.50;1.00;;;16.10;86.90;;;;;;5071790;28;20503;-83
2021/04/20 08:31:18;;;;;;;1.50;1.00;;;16.20;86.40;;;;;;5070526;28;20481;-83
2021/04/20 08:33:49;;;;;;;1.50;0.90;;;16.50;85.40;;;;;;5073167;28;20461;-82
2021/04/20 08:36:31;;;;;;;1.50;0.90;;;16.60;85.80;;;;;;5072755;28;20480;-83
2021/04/20 08:39:04;;;;;;;1.50;0.90;;;16.70;85.50;;;;;;5066017;28;20972;-85
2021/04/20 08:41:40;;;;;;;1.50;0.93;;;16.80;87.30;;;;;;5071070;28;21023;-84
2021/04/20 08:44:19;;;;;;;1.50;0.90;;;17.00;86.40;;;;;;5069555;28;20835;-83
2021/04/20 08:46:59;;;;;;;1.50;0.90;;;17.20;84.80;;;;;;5066088;28;20484;-83
2021/04/20 08:49:43;;;;;;;1.50;1.00;;;17.40;83.80;;;;;;5072779;28;20766;-83
2021/04/20 08:52:34;;;;;;;1.50;0.90;;;17.60;83.20;;;;;;5073194;28;20569;-82
2021/04/20 08:55:19;;;;;;;1.50;0.90;;;17.80;84.10;;;;;;5065137;28;20461;-83
2021/04/20 08:58:00;;;;;;;1.50;0.90;;;18.00;83.20;;;;;;5075125;28;20465;-83
2021/04/20 09:00:37;;;;;;;1.50;0.90;;;18.00;81.70;;;;;;5073130;28;20485;-82
2021/04/20 09:03:18;;;;;;;1.50;0.90;;;18.00;82.40;;;;;;5070896;28;20477;-83
2021/04/20 09:05:49;;;;;;;1.50;0.90;;;18.10;81.90;;;;;;5069479;28;21007;-84
2021/04/20 09:08:32;;;;;;;1.50;0.90;;;18.30;81.00;;;;;;5074079;28;20493;-85
2021/04/20 09:11:06;;;;;;;1.50;0.90;;;18.40;81.80;;;;;;5061996;28;20497;-84
2021/04/20 09:13:42;;;;;;;1.50;0.90;;;18.60;81.80;;;;;;5065864;28;20476;-85
2021/04/20 09:16:13;;;;;;;1.50;0.90;;;18.70;80.60;;;;;;5073183;28;20465;-83
2021/04/20 09:18:43;;;;;;;1.50;0.90;;;18.70;80.20;;;;;;5065808;28;21214;-85
2021/04/20 09:21:17;;;;;;;1.50;0.90;;;18.80;78.20;;;;;;5069667;28;20503;-83
2021/04/20 09:24:01;;;;;;;1.50;0.90;;;18.80;78.60;;;;;;5072358;28;20461;-83
2021/04/20 09:26:36;;;;;;;1.50;0.90;;;19.00;77.50;;;;;;5073080;28;20578;-83
2021/04/20 09:29:11;;;;;;;1.50;0.90;;;19.20;77.60;;;;;;5068276;28;20543;-80
2021/04/20 09:31:40;;;;;;;1.50;0.90;;;19.30;78.10;;;;;;5072093;28;20537;-83
2021/04/20 09:34:08;;;;;;;1.50;0.90;;;19.30;76.40;;;;;;5075510;28;20527;-83
2021/04/20 09:36:36;;;;;;;1.50;0.90;;;19.40;76.90;;;;;;5071588;28;20473;-83
2021/04/20 09:39:06;;;;;;;1.50;0.90;;;19.30;77.30;;;;;;5068461;28;20481;-82
2021/04/20 09:41:37;;;;;;;1.50;0.90;;;19.50;77.00;;;;;;5080947;28;20519;-83
2021/04/20 09:44:34;;;;;;;1.50;0.90;;;19.70;77.30;;;;;;5081250;28;20952;-81
2021/04/20 09:47:14;;;;;;;1.50;0.90;;;19.80;76.90;;;;;;5069950;28;20469;-82
2021/04/20 09:49:51;;;;;;;1.50;0.90;;;20.00;77.70;;;;;;5078589;28;20453;-82
2021/04/20 09:52:21;;;;;;;1.50;0.90;;;20.10;76.20;;;;;;5082093;28;20488;-82
2021/04/20 09:54:56;;;;;;;1.50;0.90;;;20.10;76.40;;;;;;5076647;28;20461;-83
2021/04/20 09:57:28;;;;;;;1.50;0.90;;;20.20;75.30;;;;;;5081041;28;20472;-82
2021/04/20 10:00:00;;;;;;;1.90;1.67;;;20.30;77.20;;;;;;5080016;28;20485;-81
2021/04/20 10:02:41;;;;;;;1.50;0.90;;;20.40;76.10;;;;;;5074085;28;20493;-81
2021/04/20 10:05:14;;;;;;;1.50;0.90;;;20.50;77.20;;;;;;5076717;28;20468;-82
2021/04/20 10:07:55;;;;;;;1.50;0.90;;;20.50;73.60;;;;;;5078546;28;20519;-81
2021/04/20 10:10:46;;;;;;;1.50;0.90;;;20.50;75.50;;;;;;5079231;28;21114;-81
2021/04/20 10:13:48;;;;;;;1.50;0.90;;;20.60;74.20;;;;;;5071000;28;20461;-83
2021/04/20 10:16:18;;;;;;;1.50;0.90;;;20.70;74.00;;;;;;5070839;28;20465;-84
2021/04/20 10:19:06;;;;;;;1.50;0.90;;;20.90;72.30;;;;;;5072236;28;20868;-82
2021/04/20 10:21:41;;;;;;;1.50;0.90;;;21.00;71.90;;;;;;5072190;28;20485;-84
2021/04/20 10:24:14;;;;;;;1.50;0.90;;;21.10;71.20;;;;;;5065465;28;20465;-83
2021/04/20 10:26:45;;;;;;;1.50;0.90;;;21.20;70.80;;;;;;5069712;28;20489;-81
2021/04/20 10:29:16;;;;;;;1.50;0.87;;;21.10;71.50;;;;;;5073865;28;20465;-84
2021/04/20 10:31:49;;;;;;;1.50;0.90;;;21.20;71.10;;;;;;5063507;28;20489;-84
2021/04/20 10:34:17;;;;;;;1.50;0.90;;;21.30;70.70;;;;;;5072961;28;20468;-86
2021/04/20 10:36:49;;;;;;;1.50;0.90;;;21.40;69.50;;;;;;5074969;28;20461;-83
2021/04/20 10:39:17;;;;;;;1.50;0.90;;;21.40;70.70;;;;;;5073739;28;20493;-84
2021/04/20 10:41:46;;;;;;;1.50;1.00;;;21.40;68.80;;;;;;5071661;28;20569;-82
2021/04/20 10:44:15;;;;;;;1.50;0.90;;;21.50;71.30;;;;;;5076545;28;20468;-83
2021/04/20 10:46:43;;;;;;;1.50;1.00;;;21.50;68.90;;;;;;5068009;28;20630;-82
2021/04/20 10:49:16;;;;;;;1.50;0.90;;;21.60;69.60;;;;;;5067083;28;20552;-82
2021/04/20 10:51:43;;;;;;;1.50;0.90;;;21.50;67.50;;;;;;5065585;28;20507;-80
2021/04/20 10:54:12;;;;;;;1.50;0.90;;;21.40;67.60;;;;;;5076706;28;20534;-80
2021/04/20 10:56:50;;;;;;;1.50;0.90;;;21.20;67.20;;;;;;5075520;28;20504;-80
2021/04/20 10:59:26;;;;;;;1.50;0.90;;;20.90;66.80;;;;;;5072004;28;20526;-82
2021/04/20 11:01:54;;;;;;;1.50;0.90;;;20.90;68.30;;;;;;5073369;28;20472;-81
2021/04/20 11:04:23;;;;;;;1.50;0.90;;;21.10;69.40;;;;;;5074030;28;20466;-83
2021/04/20 11:07:12;;;;;;;1.50;0.90;;;21.40;68.60;;;;;;5076718;28;20991;-83
2021/04/20 11:09:46;;;;;;;1.50;0.90;;;21.50;69.70;;;;;;5071184;28;20469;-83
2021/04/20 11:12:16;;;;;;;1.50;0.90;;;21.70;67.60;;;;;;5066426;28;20489;-80
2021/04/20 11:14:47;;;;;;;1.73;1.10;;;21.80;68.20;;;;;;5072541;28;20466;-82
2021/04/20 11:17:23;;;;;;;1.50;0.90;;;21.80;67.50;;;;;;5066777;28;21127;-83
2021/04/20 11:19:56;;;;;;;1.50;0.90;;;21.80;66.90;;;;;;5071385;28;20484;-83
2021/04/20 11:22:24;;;;;;;2.90;2.60;;;21.90;67.70;;;;;;5071481;28;20500;-82
2021/04/20 11:24:56;;;;;;;1.50;0.90;;;22.00;68.60;;;;;;5074415;28;20915;-83
2021/04/20 11:27:31;;;;;;;1.47;0.90;;;22.10;66.60;;;;;;5073822;28;20507;-85
2021/04/20 11:30:06;;;;;;;1.50;0.90;;;22.20;66.70;;;;;;5073103;28;20477;-82
2021/04/20 11:32:36;;;;;;;1.50;0.90;;;22.20;63.90;;;;;;5072497;28;20481;-83
2021/04/20 11:35:08;;;;;;;1.50;0.90;;;22.20;66.80;;;;;;5073927;28;20472;-82
2021/04/20 11:37:35;;;;;;;1.50;0.90;;;22.20;65.60;;;;;;5064911;28;20462;-82
2021/04/20 11:40:06;;;;;;;1.43;0.80;;;22.20;65.30;;;;;;5069848;28;20485;-83
2021/04/20 11:42:40;;;;;;;1.50;0.90;;;22.50;64.90;;;;;;5072953;28;20601;-83
2021/04/20 11:45:15;;;;;;;1.50;0.90;;;22.70;65.50;;;;;;5067258;28;21101;-82
2021/04/20 11:47:55;;;;;;;1.50;0.90;;;22.90;66.70;;;;;;5069979;28;20464;-81
2021/04/20 11:50:23;;;;;;;1.50;0.90;;;23.00;63.40;;;;;;5062886;28;20543;-80
2021/04/20 11:52:58;;;;;;;1.50;0.90;;;23.10;63.70;;;;;;5066496;28;20548;-81
2021/04/20 11:55:34;;;;;;;1.50;0.90;;;23.30;64.70;;;;;;5072478;28;20497;-80
2021/04/20 11:58:04;;;;;;;1.50;0.90;;;23.40;64.90;;;;;;5071438;28;20510;-80
2021/04/20 12:00:31;;;;;;;1.70;1.20;;;23.50;62.30;;;;;;5070893;28;20525;-80
2021/04/20 12:03:10;;;;;;;1.50;0.90;;;23.60;62.90;;;;;;5068415;28;20709;-81
2021/04/20 12:05:38;;;;;;;1.50;0.83;;;23.70;64.30;;;;;;5075244;28;20457;-82
2021/04/20 12:08:09;;;;;;;1.50;0.90;;;23.70;62.40;;;;;;5075175;28;20548;-82
2021/04/20 12:10:41;;;;;;;1.47;0.83;;;23.80;62.70;;;;;;5069273;28;20481;-84
2021/04/20 12:13:09;;;;;;;1.50;0.90;;;23.60;62.60;;;;;;5072586;28;20468;-82
2021/04/20 12:15:36;;;;;;;1.50;0.90;;;23.20;63.50;;;;;;5071522;28;20556;-83
2021/04/20 12:18:07;;;;;;;1.50;0.90;;;22.90;64.60;;;;;;5067049;28;20546;-83
2021/04/20 12:20:34;;;;;;;1.50;0.90;;;22.60;64.80;;;;;;5067890;28;20495;-83
2021/04/20 12:23:01;;;;;;;1.50;0.90;;;22.30;65.60;;;;;;5072189;28;20789;-83
2021/04/20 12:25:29;;;;;;;1.50;1.00;;;22.00;64.90;;;;;;5072934;28;20464;-83
2021/04/20 12:27:58;;;;;;;1.47;0.83;;;21.80;65.70;;;;;;5070935;28;20508;-84
2021/04/20 12:30:29;;;;;;;1.50;0.90;;;21.70;64.60;;;;;;5070752;28;20522;-81
2021/04/20 12:32:58;;;;;;;1.50;0.90;;;21.50;66.40;;;;;;5071789;28;20516;-82
2021/04/20 12:35:30;;;;;;;1.53;1.03;;;21.50;65.70;;;;;;5067876;28;20465;-83
2021/04/20 12:37:59;;;;;;;1.50;0.90;;;21.50;67.30;;;;;;5069148;28;20482;-83
2021/04/20 12:40:26;;;;;;;1.50;0.90;;;21.50;66.40;;;;;;5066481;28;20592;-83
2021/04/20 12:43:00;;;;;;;1.50;0.90;;;21.50;67.30;;;;;;5069951;28;20502;-83
2021/04/20 12:45:30;;;;;;;1.50;0.90;;;21.30;66.20;;;;;;5066938;28;20566;-82
2021/04/20 12:47:57;;;;;;;1.50;0.90;;;21.20;65.80;;;;;;5068371;28;20468;-84
2021/04/20 12:50:30;;;;;;;1.50;0.90;;;21.00;66.20;;;;;;5069311;28;20461;-83
2021/04/20 12:53:00;;;;;;;1.50;0.90;;;21.10;66.90;;;;;;5070158;28;20457;-83
2021/04/20 12:55:28;;;;;;;1.50;0.90;;;21.30;65.50;;;;;;5063826;28;20547;-83
2021/04/20 12:57:58;;;;;;;1.47;0.90;;;21.60;65.60;;;;;;5068655;28;20457;-84
2021/04/20 13:00:26;;;;;;;1.50;0.90;;;21.90;65.00;;;;;;5067244;28;20882;-83
2021/04/20 13:02:57;;;;;;;1.47;0.90;;;22.10;66.00;;;;;;5066185;28;20534;-84
2021/04/20 13:05:27;;;;;;;1.50;0.90;;;22.40;65.90;;;;;;5068786;28;20465;-84
2021/04/20 13:07:54;;;;;;;1.50;0.87;;;22.70;64.60;;;;;;5069601;28;20549;-83
2021/04/20 13:10:22;;;;;;;1.50;0.80;;;22.80;63.60;;;;;;5068839;28;20464;-83
2021/04/20 13:12:55;;;;;;;1.43;0.87;;;22.90;62.70;;;;;;5061406;28;20572;-83
2021/04/20 13:15:22;;;;;;;1.50;0.90;;;22.70;62.50;;;;;;5064693;28;20472;-82